Time;durP1;ratioP1;P1;durP2;ratioP2;P2;SDS_P1;SDS_P2;PMS_P1;PMS_P2;Temp;Humidity;BMP_temperature;BMP_pressure;BME280_temperature;BME280_humidity;BME280_pressure;Samples;Min_cycle;Max_cycle;Signal;HPM_P1;HPM_P2
2022/03/30 00:01:04;;;;;;;14.20;10.23;;;;;;;9.01;50.23;94940.78;5082717;28;20036;-71
2022/03/30 00:03:29;;;;;;;17.58;9.50;;;;;;;9.08;49.56;94948.91;5082667;28;20028;-72
2022/03/30 00:05:55;;;;;;;16.75;10.43;;;;;;;9.03;49.82;94944.09;5086845;28;20039;-73
2022/03/30 00:08:21;;;;;;;18.60;10.77;;;;;;;9.03;50.00;94942.25;5084186;28;20028;-73
2022/03/30 00:10:46;;;;;;;15.80;10.57;;;;;;;9.01;50.23;94948.81;5082971;28;20039;-72
2022/03/30 00:13:12;;;;;;;20.52;10.25;;;;;;;8.97;49.98;94937.63;5084020;28;20057;-72
2022/03/30 00:15:37;;;;;;;19.52;10.48;;;;;;;8.92;50.36;94934.66;5101893;28;20080;-72
2022/03/30 00:18:03;;;;;;;18.02;10.40;;;;;;;8.89;50.28;94929.66;5105383;28;20058;-72
2022/03/30 00:20:28;;;;;;;17.75;10.73;;;;;;;8.89;50.20;94946.56;5100792;28;20597;-72
2022/03/30 00:22:53;;;;;;;19.08;10.15;;;;;;;8.83;50.73;94928.56;5102466;28;20027;-72
2022/03/30 00:25:20;;;;;;;16.73;10.07;;;;;;;8.87;50.52;94931.69;5101909;28;20486;-72
2022/03/30 00:27:46;;;;;;;17.15;10.70;;;;;;;8.82;50.82;94929.53;5105176;28;20404;-72
2022/03/30 00:30:13;;;;;;;15.40;10.45;;;;;;;8.88;50.23;94931.50;5102350;28;20509;-72
2022/03/30 00:32:38;;;;;;;17.40;10.50;;;;;;;8.90;50.50;94931.31;5103402;28;20035;-73
2022/03/30 00:35:05;;;;;;;16.25;9.93;;;;;;;8.81;50.34;94933.22;5101970;28;20285;-73
2022/03/30 00:37:30;;;;;;;17.67;9.70;;;;;;;8.74;50.83;94922.41;5102491;28;20437;-72
2022/03/30 00:39:56;;;;;;;18.83;10.15;;;;;;;8.75;50.94;94923.25;5103130;28;20470;-73
2022/03/30 00:42:22;;;;;;;17.80;9.77;;;;;;;8.70;51.17;94922.94;5099496;28;20281;-72
2022/03/30 00:44:48;;;;;;;18.65;10.90;;;;;;;8.71;51.02;94922.78;5082062;28;20393;-73
2022/03/30 00:47:15;;;;;;;18.52;10.82;;;;;;;8.73;50.91;94920.75;5083573;28;20035;-71
2022/03/30 00:49:40;;;;;;;18.52;10.82;;;;;;;8.71;50.91;94924.59;5080808;28;20390;-71
2022/03/30 00:52:06;;;;;;;16.92;10.73;;;;;;;8.73;50.99;94920.75;5084338;28;20470;-73
2022/03/30 00:54:31;;;;;;;19.10;10.25;;;;;;;8.71;51.24;94932.63;5094611;28;20124;-72
2022/03/30 00:56:57;;;;;;;17.98;10.48;;;;;;;8.68;51.14;94927.63;5103413;28;20859;-73
2022/03/30 00:59:22;;;;;;;21.63;11.25;;;;;;;8.43;51.50;94931.25;5100006;28;20438;-73
2022/03/30 01:01:48;;;;;;;21.45;11.05;;;;;;;8.44;51.60;94922.25;5101359;28;20039;-72
2022/03/30 01:04:14;;;;;;;20.58;11.32;;;;;;;8.37;52.30;94914.09;5072643;28;20028;-73
2022/03/30 01:06:39;;;;;;;17.05;10.27;;;;;;;8.39;52.14;94924.63;5082674;28;20016;-72
2022/03/30 01:09:04;;;;;;;17.55;10.00;;;;;;;8.41;51.96;94917.25;5080141;28;20024;-72
2022/03/30 01:11:30;;;;;;;15.88;10.35;;;;;;;8.48;51.39;94910.19;5080705;28;20024;-72
2022/03/30 01:13:55;;;;;;;21.50;11.68;;;;;;;8.38;52.21;94917.63;5081131;28;20048;-72
2022/03/30 01:16:23;;;;;;;23.23;12.00;;;;;;;8.31;52.31;94912.13;5082635;28;20051;-73
2022/03/30 01:18:48;;;;;;;22.80;14.05;;;;;;;8.20;52.36;94912.53;5081262;28;20529;-73
2022/03/30 01:21:14;;;;;;;22.98;12.70;;;;;;;8.01;52.74;94902.09;5083671;28;20474;-72
2022/03/30 01:23:39;;;;;;;17.35;11.15;;;;;;;8.10;52.38;94915.41;5078907;28;20434;-72
2022/03/30 01:26:05;;;;;;;17.80;11.02;;;;;;;7.98;53.02;94920.31;5083279;28;20590;-73
2022/03/30 01:28:34;;;;;;;17.05;10.93;;;;;;;7.83;53.05;94923.72;5077491;28;20414;-73
2022/03/30 01:33:45;;;;;;;20.23;11.23;;;;;;;7.74;53.96;94927.38;5090093;28;20039;-72
2022/03/30 01:36:11;;;;;;;15.68;11.02;;;;;;;7.64;54.07;94928.41;5102736;28;20513;-72
2022/03/30 01:38:37;;;;;;;17.25;10.65;;;;;;;7.61;54.14;94928.75;5082159;28;20016;-72
2022/03/30 01:41:02;;;;;;;17.25;11.85;;;;;;;7.69;54.16;94927.09;5103138;28;20032;-73
2022/03/30 01:43:30;;;;;;;18.35;12.52;;;;;;;7.76;53.70;94926.22;5078884;28;20524;-73
2022/03/30 01:45:57;;;;;;;21.02;12.85;;;;;;;7.81;53.29;94927.53;5102910;28;20016;-73
2022/03/30 01:48:22;;;;;;;26.10;12.93;;;;;;;7.65;53.42;94939.94;5102520;28;20034;-71
2022/03/30 01:50:48;;;;;;;19.98;12.52;;;;;;;7.61;53.71;94927.94;5098227;28;20394;-72
2022/03/30 01:53:14;;;;;;;20.25;11.85;;;;;;;7.57;53.97;94927.44;5068058;28;20630;-72
2022/03/30 01:55:39;;;;;;;18.20;12.05;;;;;;;7.48;54.41;94929.28;5082299;28;20024;-70
2022/03/30 01:58:05;;;;;;;23.40;12.70;;;;;;;7.55;53.77;94934.78;5082580;28;20107;-73
2022/03/30 02:00:30;;;;;;;24.55;12.18;;;;;;;7.63;53.96;94933.94;5078036;28;20564;-72
2022/03/30 02:02:56;;;;;;;26.15;12.25;;;;;;;7.62;53.74;94924.28;5099487;28;20030;-73
2022/03/30 02:05:21;;;;;;;20.27;12.38;;;;;;;7.73;53.05;94928.41;5101236;28;20425;-72
2022/03/30 02:07:47;;;;;;;27.20;13.32;;;;;;;7.61;52.91;94931.44;5102698;28;20032;-72
2022/03/30 02:10:12;;;;;;;23.40;14.32;;;;;;;7.57;52.87;94927.44;5101016;28;20482;-72
2022/03/30 02:12:38;;;;;;;27.45;15.82;;;;;;;7.44;53.09;94933.31;5100923;28;20570;-71
2022/03/30 02:15:04;;;;;;;24.20;15.43;;;;;;;7.34;53.47;94924.66;5103387;28;20120;-72
2022/03/30 02:17:30;;;;;;;33.70;16.42;;;;;;;7.33;53.03;94934.50;5103498;28;20028;-73
2022/03/30 02:19:55;;;;;;;31.77;17.08;;;;;;;7.21;53.21;94939.34;5099066;28;20046;-72
2022/03/30 02:22:22;;;;;;;30.95;16.27;;;;;;;7.30;52.33;94948.19;5102374;28;20012;-72
2022/03/30 02:24:48;;;;;;;31.75;17.55;;;;;;;7.05;52.99;94937.53;5101597;28;20387;-72
2022/03/30 02:27:14;;;;;;;26.50;17.33;;;;;;;6.93;53.68;94945.84;5100794;28;20024;-72
2022/03/30 02:29:39;;;;;;;27.38;16.45;;;;;;;6.82;54.22;94948.84;5100997;28;20031;-72
2022/03/30 02:32:05;;;;;;;25.55;16.48;;;;;;;6.78;54.64;94944.84;5101325;28;20028;-72
2022/03/30 02:34:31;;;;;;;31.55;17.95;;;;;;;6.86;54.39;94952.03;5102205;28;20096;-71
2022/03/30 02:36:56;;;;;;;27.80;16.80;;;;;;;6.76;54.85;94949.50;5080599;28;20111;-73
2022/03/30 02:39:22;;;;;;;27.05;15.48;;;;;;;6.72;54.97;94943.69;5079846;28;20533;-72
2022/03/30 02:41:48;;;;;;;27.50;15.18;;;;;;;6.70;55.35;94937.69;5080830;28;20510;-73
2022/03/30 02:44:13;;;;;;;30.10;16.08;;;;;;;6.71;55.68;94942.00;5082216;28;20116;-72
2022/03/30 02:46:39;;;;;;;29.30;15.50;;;;;;;6.65;56.20;94935.53;5082643;28;20031;-72
2022/03/30 02:49:04;;;;;;;34.38;15.57;;;;;;;6.70;56.48;94947.50;5079262;28;20032;-71
2022/03/30 02:51:30;;;;;;;29.77;17.05;;;;;;;6.78;56.12;94940.38;5081735;28;20039;-72
2022/03/30 02:53:55;;;;;;;29.67;15.65;;;;;;;6.69;55.93;94936.00;5078982;28;20028;-73
2022/03/30 02:56:21;;;;;;;32.88;16.80;;;;;;;6.74;55.83;94932.88;5068027;28;20479;-71
2022/03/30 02:58:46;;;;;;;28.23;16.35;;;;;;;6.72;56.34;94932.19;5086791;28;20024;-72
2022/03/30 03:01:12;;;;;;;34.15;17.35;;;;;;;6.72;56.63;94930.38;5085832;28;20035;-73
2022/03/30 03:03:37;;;;;;;26.88;15.05;;;;;;;6.74;56.53;94933.69;5087034;28;20024;-73
2022/03/30 03:06:02;;;;;;;23.52;13.80;;;;;;;6.68;57.05;94931.69;5067340;28;20032;-73
2022/03/30 03:08:28;;;;;;;27.60;15.07;;;;;;;6.70;56.53;94932.34;5086838;28;20016;-73
2022/03/30 03:10:53;;;;;;;29.25;15.43;;;;;;;6.69;55.89;94936.00;5086091;28;20024;-72
2022/03/30 03:13:19;;;;;;;25.45;15.27;;;;;;;6.67;55.74;94930.84;5086343;28;20022;-72
2022/03/30 03:15:46;;;;;;;32.95;15.80;;;;;;;6.57;56.41;94932.00;5084888;28;20081;-73
2022/03/30 03:18:12;;;;;;;24.13;14.80;;;;;;;6.59;56.24;94922.88;5086230;28;20103;-73
2022/03/30 03:20:40;;;;;;;29.23;15.10;;;;;;;6.61;56.10;94933.34;5087905;28;20028;-72
2022/03/30 03:23:06;;;;;;;27.10;15.82;;;;;;;6.52;56.52;94927.16;5087055;28;20046;-73
2022/03/30 03:25:35;;;;;;;24.45;15.85;;;;;;;6.52;57.32;94924.50;5086581;28;20024;-72
2022/03/30 03:28:01;;;;;;;21.77;13.63;;;;;;;6.59;56.35;94932.69;5085856;28;20032;-72
2022/03/30 03:30:27;;;;;;;28.85;16.85;;;;;;;6.65;56.62;94926.69;5086403;28;20031;-73
2022/03/30 03:32:52;;;;;;;39.88;16.75;;;;;;;6.59;55.96;94928.19;5087245;28;20046;-73
2022/03/30 03:35:17;;;;;;;26.70;15.45;;;;;;;6.46;57.21;94930.50;5087489;28;20016;-72
2022/03/30 03:37:43;;;;;;;30.92;15.75;;;;;;;6.37;56.47;94933.13;5087904;28;20027;-72
2022/03/30 03:40:09;;;;;;;31.50;16.20;;;;;;;6.22;56.53;94926.78;5087075;28;20020;-72
2022/03/30 03:42:34;;;;;;;28.80;16.13;;;;;;;6.29;56.98;94927.78;5086375;28;20173;-72
2022/03/30 03:45:00;;;;;;;27.88;16.45;;;;;;;6.11;57.95;94934.06;5068379;28;20516;-73
2022/03/30 03:47:25;;;;;;;28.23;16.80;;;;;;;6.09;57.92;94935.22;5086101;28;20111;-72
2022/03/30 03:49:51;;;;;;;34.15;16.98;;;;;;;6.06;58.21;94934.53;5086681;28;20034;-72
2022/03/30 03:52:16;;;;;;;25.73;16.30;;;;;;;6.12;57.39;94929.56;5085727;28;20039;-72
2022/03/30 03:54:42;;;;;;;32.22;17.13;;;;;;;6.16;57.06;94931.75;5086940;28;20470;-73
2022/03/30 03:57:08;;;;;;;37.90;17.83;;;;;;;5.84;59.21;94935.09;5086756;28;20028;-73
2022/03/30 03:59:33;;;;;;;33.78;18.00;;;;;;;5.87;58.29;94932.13;5086162;28;20028;-73
2022/03/30 04:01:59;;;;;;;31.00;16.70;;;;;;;5.82;59.47;94935.25;5084942;28;20162;-72
2022/03/30 04:04:24;;;;;;;37.35;18.45;;;;;;;5.90;58.06;94932.63;5069513;28;20027;-73
2022/03/30 04:06:50;;;;;;;37.83;19.20;;;;;;;5.90;57.36;94929.16;5084652;28;20028;-72
2022/03/30 04:09:15;;;;;;;33.03;18.83;;;;;;;5.87;56.27;94924.16;5086036;28;20020;-72
2022/03/30 04:11:41;;;;;;;36.17;17.90;;;;;;;5.87;56.27;94937.44;5086167;28;20482;-73
2022/03/30 04:14:06;;;;;;;27.45;15.95;;;;;;;5.85;56.28;94937.59;5086248;28;20063;-72
2022/03/30 04:16:32;;;;;;;29.25;16.33;;;;;;;5.90;57.27;94935.28;5087068;28;20028;-72
2022/03/30 04:18:57;;;;;;;42.35;18.42;;;;;;;5.90;55.88;94935.28;5086345;28;20467;-73
2022/03/30 04:21:22;;;;;;;38.67;18.33;;;;;;;5.77;56.31;94938.38;5085794;28;20481;-73
2022/03/30 04:23:48;;;;;;;45.40;20.23;;;;;;;5.77;56.37;94940.22;5085704;28;20019;-72
2022/03/30 04:26:13;;;;;;;36.10;18.77;;;;;;;5.62;56.90;94945.31;5085473;28;20024;-72
2022/03/30 04:28:40;;;;;;;27.02;17.15;;;;;;;5.65;56.05;94939.66;5086004;28;20031;-72
2022/03/30 04:31:12;;;;;;;27.52;16.38;;;;;;;5.67;56.05;94943.00;5084741;28;20028;-73
2022/03/30 04:33:37;;;;;;;32.28;18.10;;;;;;;5.67;55.99;94930.53;5086255;28;20028;-72
2022/03/30 04:36:03;;;;;;;33.38;16.80;;;;;;;5.55;56.64;94935.28;5085652;28;20024;-73
2022/03/30 04:38:29;;;;;;;32.03;18.52;;;;;;;5.41;56.91;94938.53;5085033;28;20024;-73
2022/03/30 04:40:54;;;;;;;29.58;17.58;;;;;;;5.35;57.21;94933.84;5089351;28;20471;-72
2022/03/30 04:43:19;;;;;;;29.45;16.70;;;;;;;5.36;57.32;94930.19;5083407;28;20020;-72
2022/03/30 04:45:48;;;;;;;32.15;17.42;;;;;;;5.28;57.68;94930.97;5083255;28;20059;-73
2022/03/30 04:48:13;;;;;;;31.27;17.88;;;;;;;5.30;58.10;94935.13;5093707;28;20030;-75
2022/03/30 04:50:38;;;;;;;28.65;17.65;;;;;;;5.22;57.65;94940.44;5103248;28;20398;-76
2022/03/30 04:53:04;;;;;;;42.35;19.13;;;;;;;5.18;58.00;94939.91;5097420;28;20028;-75
2022/03/30 04:55:29;;;;;;;36.97;20.35;;;;;;;5.24;58.16;94937.59;5079446;28;20028;-75
2022/03/30 04:57:55;;;;;;;37.05;19.17;;;;;;;5.39;58.67;94948.50;5085193;28;20488;-75
2022/03/30 05:00:21;;;;;;;42.78;19.60;;;;;;;5.54;56.86;94938.13;5082499;28;20024;-77
2022/03/30 05:02:47;;;;;;;38.08;19.55;;;;;;;5.74;56.83;94946.69;5074718;28;20400;-71
2022/03/30 05:05:13;;;;;;;37.55;20.55;;;;;;;5.91;55.97;94954.75;5080601;28;20046;-69
2022/03/30 05:07:38;;;;;;;40.28;20.63;;;;;;;6.06;55.72;94955.84;5083266;28;20572;-73
2022/03/30 05:10:05;;;;;;;32.20;19.92;;;;;;;6.26;54.99;94957.41;5077204;28;20487;-73
2022/03/30 05:12:31;;;;;;;37.67;20.05;;;;;;;6.43;54.37;94952.97;5081502;28;20216;-72
2022/03/30 05:14:56;;;;;;;41.13;19.58;;;;;;;6.54;54.02;94949.16;5076300;28;20533;-72
2022/03/30 05:17:22;;;;;;;35.40;18.75;;;;;;;6.60;53.31;94952.97;5082467;28;20047;-73
2022/03/30 05:19:48;;;;;;;36.55;19.58;;;;;;;6.71;53.67;94960.66;5081842;28;20027;-73
2022/03/30 05:22:14;;;;;;;33.47;19.35;;;;;;;6.86;53.04;94952.88;5081840;28;20043;-72
2022/03/30 05:24:39;;;;;;;40.53;20.55;;;;;;;6.99;52.80;94949.69;5079796;28;20402;-73
2022/03/30 05:27:05;;;;;;;41.15;19.65;;;;;;;7.12;52.07;94951.03;5083327;28;20016;-72
2022/03/30 05:29:31;;;;;;;47.65;20.40;;;;;;;7.21;52.30;94950.00;5081452;28;20024;-73
2022/03/30 05:31:56;;;;;;;41.20;19.25;;;;;;;7.35;51.97;94947.69;5081324;28;20052;-72
2022/03/30 05:34:24;;;;;;;42.83;19.50;;;;;;;7.60;52.24;94936.94;5083372;28;20035;-73
2022/03/30 05:36:49;;;;;;;37.92;20.52;;;;;;;7.81;51.78;94943.56;5083746;28;20016;-72
2022/03/30 05:39:15;;;;;;;47.85;20.30;;;;;;;8.06;50.89;94946.16;5082904;28;20066;-72
2022/03/30 05:41:40;;;;;;;40.13;19.40;;;;;;;8.22;50.52;94943.38;5083266;28;20039;-73
2022/03/30 05:44:06;;;;;;;34.58;18.38;;;;;;;8.49;50.79;94946.63;5091175;28;20020;-73
2022/03/30 05:46:31;;;;;;;33.55;18.80;;;;;;;8.68;49.83;94949.88;5081997;28;20026;-73
2022/03/30 05:48:57;;;;;;;29.05;18.75;;;;;;;8.86;49.58;94935.38;5081878;28;21269;-72
2022/03/30 05:51:22;;;;;;;35.63;20.00;;;;;;;9.00;49.69;94945.28;5081355;28;20036;-73
2022/03/30 05:53:48;;;;;;;37.00;20.25;;;;;;;9.19;49.30;94950.34;5092467;28;20478;-73
2022/03/30 05:56:13;;;;;;;32.92;17.58;;;;;;;9.41;48.91;94948.63;5092247;28;20388;-73
2022/03/30 05:58:39;;;;;;;28.83;17.30;;;;;;;9.60;48.25;94941.09;5082656;28;20027;-73
2022/03/30 06:01:04;;;;;;;37.00;17.40;;;;;;;9.73;47.90;94941.28;5082639;28;20260;-72
2022/03/30 06:03:30;;;;;;;29.23;17.63;;;;;;;9.90;47.97;94941.09;5079756;28;20056;-73
2022/03/30 06:05:55;;;;;;;35.03;18.10;;;;;;;10.06;47.82;94942.75;5078735;28;20464;-73
2022/03/30 06:08:21;;;;;;;34.58;16.75;;;;;;;10.34;47.45;94942.09;5090660;28;20040;-73
2022/03/30 06:10:46;;;;;;;30.63;16.77;;;;;;;10.43;47.40;94953.50;5083080;28;20024;-73
2022/03/30 06:13:12;;;;;;;27.05;17.25;;;;;;;10.67;46.86;94956.09;5078523;28;20031;-74
2022/03/30 06:15:38;;;;;;;29.90;16.67;;;;;;;10.91;46.65;94959.44;5081531;28;20036;-73
2022/03/30 06:18:10;;;;;;;29.90;18.13;;;;;;;10.91;47.17;94954.91;5083391;28;20431;-73
2022/03/30 06:20:35;;;;;;;29.58;16.50;;;;;;;11.00;46.84;94958.28;5081780;28;20028;-72
2022/03/30 06:23:01;;;;;;;26.75;16.10;;;;;;;11.04;46.75;94946.16;5074325;28;20596;-72
2022/03/30 06:25:26;;;;;;;31.52;16.42;;;;;;;11.11;46.91;94948.88;5079610;28;20020;-74
2022/03/30 06:27:52;;;;;;;28.83;17.60;;;;;;;11.32;46.75;94960.63;5081543;28;20655;-72
2022/03/30 06:30:17;;;;;;;31.55;16.55;;;;;;;11.32;46.82;94953.41;5089081;28;20486;-73
2022/03/30 06:32:46;;;;;;;29.58;16.02;;;;;;;11.41;47.00;94955.97;5090859;28;20028;-73
2022/03/30 06:35:12;;;;;;;30.95;16.88;;;;;;;11.63;46.53;94959.44;5080611;28;20032;-72
2022/03/30 06:37:38;;;;;;;27.27;15.80;;;;;;;11.85;45.91;94956.69;5097640;28;20028;-73
2022/03/30 06:40:04;;;;;;;24.63;14.70;;;;;;;12.01;45.33;94963.59;5089926;28;20036;-73
2022/03/30 06:42:29;;;;;;;23.40;14.60;;;;;;;12.16;44.89;94951.94;5084620;28;20035;-73
2022/03/30 06:44:56;;;;;;;31.83;16.48;;;;;;;12.20;44.99;94959.41;5084899;28;20495;-73
2022/03/30 06:47:22;;;;;;;26.42;16.42;;;;;;;12.19;45.12;94960.44;5096328;28;20023;-76
2022/03/30 06:49:48;;;;;;;22.98;14.63;;;;;;;12.30;44.81;94960.91;5090527;28;20012;-73
2022/03/30 06:52:13;;;;;;;27.23;15.20;;;;;;;12.52;44.44;94960.78;5099480;28;20028;-73
2022/03/30 06:54:38;;;;;;;20.50;14.95;;;;;;;12.75;44.63;94960.47;5106345;28;20050;-73
2022/03/30 06:57:04;;;;;;;23.08;15.10;;;;;;;12.78;44.19;94960.06;5107061;28;20395;-73
2022/03/30 06:59:30;;;;;;;26.58;16.70;;;;;;;12.88;43.99;94965.03;5102449;28;20080;-76
2022/03/30 07:01:56;;;;;;;28.25;15.55;;;;;;;13.12;43.54;94970.06;5102380;28;20035;-73
2022/03/30 07:04:24;;;;;;;29.67;15.73;;;;;;;13.47;42.88;94968.06;5107362;28;20458;-75
2022/03/30 07:12:18;;;;;;;23.15;15.05;;;;;;;14.01;41.67;94958.28;5105019;28;20088;-73
2022/03/30 07:14:46;;;;;;;25.83;14.32;;;;;;;14.12;41.68;94957.66;5106245;28;20043;-73
2022/03/30 07:17:12;;;;;;;23.15;15.13;;;;;;;14.19;41.37;94955.75;5107168;28;20019;-76
2022/03/30 07:19:38;;;;;;;24.98;14.95;;;;;;;14.19;41.11;94947.66;5107972;28;20034;-72
2022/03/30 07:22:04;;;;;;;37.25;17.08;;;;;;;14.29;41.19;94949.09;5107824;27;20497;-74
2022/03/30 07:24:29;;;;;;;35.88;18.60;;;;;;;14.36;41.38;94952.59;5106228;28;20031;-74
2022/03/30 07:26:54;;;;;;;33.20;16.23;;;;;;;14.43;40.86;94944.47;5106208;28;20027;-75
2022/03/30 07:29:20;;;;;;;40.13;17.17;;;;;;;14.54;41.14;94934.91;5088771;28;20027;-73
2022/03/30 07:31:45;;;;;;;29.73;16.55;;;;;;;14.63;41.24;94936.31;5087828;28;20043;-72
2022/03/30 07:34:11;;;;;;;25.58;15.35;;;;;;;14.71;41.12;94936.06;5104305;28;20054;-74
2022/03/30 07:36:38;;;;;;;23.55;14.85;;;;;;;14.86;40.86;94934.97;5107837;28;20497;-74
2022/03/30 07:39:03;;;;;;;31.00;14.20;;;;;;;15.05;40.66;94949.41;5105059;28;20039;-73
2022/03/30 07:41:28;;;;;;;28.15;13.82;;;;;;;15.18;40.15;94945.78;5107013;28;20328;-74
2022/03/30 07:43:54;;;;;;;18.77;13.80;;;;;;;15.25;40.40;94943.03;5107524;28;20034;-74
2022/03/30 07:46:19;;;;;;;19.98;13.45;;;;;;;15.28;39.95;94947.97;5107455;28;20055;-74
2022/03/30 07:48:45;;;;;;;25.70;14.00;;;;;;;15.42;39.78;94937.94;5107715;28;20395;-72
2022/03/30 07:51:10;;;;;;;19.48;13.45;;;;;;;15.61;39.89;94943.38;5088486;28;20027;-73
2022/03/30 07:53:36;;;;;;;24.60;13.45;;;;;;;15.62;39.68;94944.22;5107526;27;20081;-73
2022/03/30 07:56:01;;;;;;;23.77;14.68;;;;;;;15.65;39.82;94936.47;5106697;28;20266;-74
2022/03/30 07:58:26;;;;;;;23.38;13.15;;;;;;;15.68;39.75;94930.66;5108021;28;20024;-73
2022/03/30 08:00:52;;;;;;;32.40;13.20;;;;;;;15.93;39.15;94935.19;5105427;28;20024;-73
2022/03/30 08:03:18;;;;;;;23.38;15.65;;;;;;;15.89;39.24;94930.44;5105904;28;20035;-73
2022/03/30 08:05:43;;;;;;;25.45;13.95;;;;;;;16.02;39.62;94933.06;5088891;28;20420;-74
2022/03/30 08:08:09;;;;;;;29.20;16.85;;;;;;;16.15;38.94;94929.38;5105368;28;20028;-74
2022/03/30 08:10:35;;;;;;;30.33;17.08;;;;;;;16.31;38.81;94930.66;5107675;28;20085;-73
2022/03/30 08:13:00;;;;;;;25.33;13.98;;;;;;;16.53;38.80;94926.66;5106403;28;20046;-73
2022/03/30 08:15:26;;;;;;;24.85;13.80;;;;;;;16.65;38.69;94922.13;5105840;28;20040;-75
2022/03/30 08:17:52;;;;;;;22.00;13.05;;;;;;;16.59;38.35;94920.34;5106150;28;20034;-74
2022/03/30 08:23:03;;;;;;;23.50;13.57;;;;;;;16.55;38.53;94916.44;5091522;28;20371;-73
2022/03/30 08:25:28;;;;;;;24.33;13.50;;;;;;;16.78;37.95;94910.28;5106395;28;20024;-73
2022/03/30 08:27:54;;;;;;;22.10;12.75;;;;;;;16.95;37.52;94914.25;5107166;27;20421;-73
2022/03/30 08:30:19;;;;;;;24.02;13.15;;;;;;;17.17;37.46;94910.00;5106041;28;20076;-73
2022/03/30 08:32:45;;;;;;;20.50;12.30;;;;;;;17.25;37.67;94902.59;5105440;28;20024;-73
2022/03/30 08:35:12;;;;;;;22.77;11.45;;;;;;;17.22;38.17;94897.66;5106068;28;20027;-73
2022/03/30 08:37:38;;;;;;;22.58;11.65;;;;;;;17.31;37.50;94904.38;5106993;28;20129;-72
2022/03/30 08:40:04;;;;;;;25.23;10.77;;;;;;;17.40;37.51;94896.72;5105274;28;20038;-73
2022/03/30 08:42:29;;;;;;;18.08;11.07;;;;;;;17.49;37.39;94894.50;5106492;28;20458;-74
2022/03/30 08:44:55;;;;;;;19.67;10.48;;;;;;;17.63;36.30;94885.09;5105455;28;20024;-73
2022/03/30 08:47:20;;;;;;;30.85;10.90;;;;;;;17.52;36.13;94886.72;5104831;28;20027;-74
2022/03/30 08:49:50;;;;;;;20.27;10.50;;;;;;;17.71;35.90;94881.19;5106835;28;20024;-73
2022/03/30 08:52:16;;;;;;;16.13;9.02;;;;;;;17.84;35.33;94872.00;5105201;28;20020;-73
2022/03/30 08:54:46;;;;;;;21.75;8.32;;;;;;;17.77;35.24;94860.44;5105329;28;20093;-72
2022/03/30 08:57:12;;;;;;;21.67;8.90;;;;;;;17.76;33.82;94858.78;5071006;28;20036;-73
2022/03/30 08:59:37;;;;;;;18.95;8.05;;;;;;;17.66;34.34;94849.38;5104687;28;20105;-73
2022/03/30 09:02:03;;;;;;;16.25;8.32;;;;;;;17.67;34.46;94855.59;5105182;28;20062;-74
2022/03/30 09:04:28;;;;;;;14.65;8.48;;;;;;;17.73;34.58;94859.25;5105959;28;20129;-74
2022/03/30 09:06:55;;;;;;;15.82;8.00;;;;;;;17.83;33.81;94856.75;5106563;28;20035;-73
2022/03/30 09:09:31;;;;;;;15.18;6.88;;;;;;;17.57;31.70;94868.94;5087371;28;20028;-74
2022/03/30 09:11:57;;;;;;;15.90;5.93;;;;;;;17.55;31.88;94861.03;5104959;28;20030;-73
2022/03/30 09:14:34;;;;;;;12.02;4.80;;;;;;;17.60;30.98;94855.75;5087427;28;20097;-74
2022/03/30 09:17:01;;;;;;;17.10;6.38;;;;;;;17.57;30.86;94852.66;5104329;28;20135;-74
2022/03/30 09:19:27;;;;;;;16.38;6.10;;;;;;;17.47;31.16;94837.81;5088424;28;20032;-73
2022/03/30 09:21:59;;;;;;;11.00;5.45;;;;;;;17.48;31.80;94836.75;5105318;28;20020;-73
2022/03/30 09:24:29;;;;;;;14.00;7.10;;;;;;;17.60;30.63;94830.50;5088088;28;20023;-73
2022/03/30 09:26:55;;;;;;;15.60;5.55;;;;;;;17.69;31.09;94820.09;5103611;28;20016;-73
2022/03/30 09:29:22;;;;;;;20.80;6.70;;;;;;;17.72;30.41;94831.31;5087935;28;20054;-72
2022/03/30 09:31:51;;;;;;;14.50;6.25;;;;;;;17.77;29.85;94827.88;5104135;28;20478;-75
2022/03/30 09:34:17;;;;;;;13.07;6.40;;;;;;;17.69;29.43;94826.38;5104031;28;20549;-73
2022/03/30 09:36:42;;;;;;;15.77;5.90;;;;;;;17.62;29.50;94817.53;5105960;28;20026;-74
2022/03/30 09:39:35;;;;;;;15.60;6.82;;;;;;;17.46;29.95;94800.09;5086520;28;20019;-74
2022/03/30 09:42:02;;;;;;;9.95;5.60;;;;;;;17.54;29.97;94807.84;5105570;28;20070;-74
2022/03/30 09:44:31;;;;;;;18.17;5.93;;;;;;;17.62;30.15;94802.06;5105179;28;20085;-73
2022/03/30 09:47:06;;;;;;;14.30;5.63;;;;;;;17.66;29.78;94797.00;5104282;28;20032;-74
2022/03/30 09:49:42;;;;;;;14.60;5.32;;;;;;;17.69;29.56;94799.25;5104557;28;20515;-74
2022/03/30 09:52:16;;;;;;;8.70;4.95;;;;;;;17.58;29.87;94787.34;5104647;28;20475;-73
2022/03/30 09:54:47;;;;;;;22.95;5.82;;;;;;;17.54;29.57;94791.59;5105914;28;20034;-73
2022/03/30 09:57:15;;;;;;;15.38;5.78;;;;;;;17.71;29.68;94786.28;5104695;28;20448;-75
2022/03/30 10:00:03;;;;;;;13.63;5.38;;;;;;;17.82;29.40;94770.22;5087368;28;20035;-74
2022/03/30 10:02:36;;;;;;;10.88;5.13;;;;;;;17.70;29.03;94762.91;5103959;28;20157;-73
2022/03/30 10:05:03;;;;;;;12.25;4.82;;;;;;;17.81;28.56;94769.41;5111221;28;20144;-73
2022/03/30 10:07:28;;;;;;;14.18;4.78;;;;;;;17.78;28.10;94753.63;5093672;28;20023;-74
2022/03/30 10:09:56;;;;;;;11.23;4.70;;;;;;;17.80;29.09;94751.47;5109807;28;20024;-73
2022/03/30 10:12:22;;;;;;;15.45;6.68;;;;;;;17.89;28.42;94755.44;5110607;28;20032;-75
2022/03/30 10:14:48;;;;;;;9.57;4.60;;;;;;;17.73;28.05;94739.94;5093168;28;20039;-73
2022/03/30 10:17:14;;;;;;;16.48;5.32;;;;;;;17.90;28.32;94740.84;5111739;27;20088;-73
2022/03/30 10:19:44;;;;;;;15.32;5.95;;;;;;;17.97;28.94;94739.88;5112571;27;20024;-75
2022/03/30 10:22:47;;;;;;;21.30;5.40;;;;;;;18.20;28.59;94730.84;5110313;28;20066;-74
2022/03/30 10:25:16;;;;;;;;;;;;;;;18.15;28.02;94734.28;5111281;28;20059;-74
2022/03/30 10:28:09;;;;;;;14.18;5.55;;;;;;;18.12;28.12;94720.41;5111890;28;20344;-75
2022/03/30 10:30:35;;;;;;;;;;;;;;;18.21;27.78;94718.94;5111956;28;20058;-73
2022/03/30 10:33:01;;;;;;;18.48;4.88;;;;;;;18.07;27.34;94720.25;5094031;28;19912;-74
2022/03/30 10:35:37;;;;;;;19.13;4.75;;;;;;;18.08;27.32;94725.44;5092922;28;20019;-74
2022/03/30 10:38:02;;;;;;;11.23;4.72;;;;;;;18.12;27.17;94718.50;5112260;27;20031;-74
2022/03/30 10:40:28;;;;;;;12.10;4.40;;;;;;;18.08;27.24;94720.03;5109877;28;20375;-74
2022/03/30 10:42:54;;;;;;;19.58;4.65;;;;;;;17.91;26.75;94728.91;5110550;28;20489;-74
2022/03/30 10:45:28;;;;;;;15.77;5.47;;;;;;;17.97;27.52;94712.75;5111508;27;20024;-73
2022/03/30 10:48:15;;;;;;;8.75;4.90;;;;;;;18.13;27.04;94717.44;5111942;28;20072;-76
2022/03/30 10:50:48;;;;;;;11.32;4.40;;;;;;;18.16;27.18;94706.09;5112086;27;20390;-75
2022/03/30 10:53:32;;;;;;;14.57;4.57;;;;;;;18.37;26.98;94711.91;5109868;28;20494;-72
2022/03/30 10:56:15;;;;;;;15.32;4.93;;;;;;;18.22;27.14;94703.47;5111921;27;20554;-73
2022/03/30 10:59:01;;;;;;;13.32;5.53;;;;;;;18.30;27.17;94723.97;5111926;27;20024;-74
2022/03/30 11:01:30;;;;;;;16.15;5.05;;;;;;;18.40;27.27;94707.84;5096333;27;20039;-73
2022/03/30 11:04:13;;;;;;;15.80;4.35;;;;;;;18.31;26.75;94706.63;5112064;28;20024;-74
2022/03/30 11:06:40;;;;;;;21.73;5.43;;;;;;;18.16;27.16;94689.81;5110739;27;20060;-76
2022/03/30 11:09:09;;;;;;;14.45;4.53;;;;;;;18.30;26.75;94710.41;5093303;28;20124;-75
2022/03/30 11:11:42;;;;;;;10.50;4.18;;;;;;;18.39;27.36;94703.50;5111383;27;20390;-72
2022/03/30 11:14:26;;;;;;;11.00;4.90;;;;;;;18.37;27.01;94703.75;5110666;27;20055;-74
2022/03/30 11:17:08;;;;;;;15.00;4.95;;;;;;;18.45;27.13;94697.09;5108034;28;20141;-73
2022/03/30 11:19:57;;;;;;;12.65;4.47;;;;;;;18.51;26.97;94709.69;5106594;28;20056;-73
2022/03/30 11:22:44;;;;;;;10.50;4.20;;;;;;;18.62;27.14;94707.16;5107999;28;20028;-72
2022/03/30 11:25:09;;;;;;;17.70;5.45;;;;;;;18.61;26.43;94700.06;5108884;28;20012;-73
2022/03/30 11:27:35;;;;;;;8.90;4.05;;;;;;;18.59;26.55;94727.47;5107061;28;20030;-73
2022/03/30 11:30:03;;;;;;;12.95;4.30;;;;;;;18.39;27.16;94692.66;5107153;28;20028;-73
2022/03/30 11:32:50;;;;;;;15.13;5.00;;;;;;;18.49;27.31;94686.56;5107298;28;20019;-73
2022/03/30 11:35:19;;;;;;;13.25;4.47;;;;;;;18.49;26.88;94684.66;5106337;28;20474;-74